AIC2450 VIDP-VILH
Flight info
| Callsign | AIC2450 |
|---|---|
| Flight time | 1h 0m |
| Altitude | 31000 |
| Route | SP W39 LELAX DCT 3319N07802E/N0451F320 DCT 3349N07749E DCT LEH |
| Aircraft | A320/M-SDE3FGHIRWY/LB1 |
Departure
| Time | 2026-05-07 17:58 |
|---|---|
| Airport | Indira Gandhi International Airport (VIDP) |
Arrival
| Time | 2026-05-07 18:59 |
|---|---|
| Airport | Leh Kushok Bakula Rimpochee Airport (VILH) |
| Time | Latitude | Longitude | Altitude | Speed | Heading |
|---|---|---|---|---|---|
| 2026-05-07 17:43 | 28.56124 | 77.09540 | 750 ft | 0 kts | 15° |
| 2026-05-07 17:47 | 28.56103 | 77.09535 | 749 ft | 4 kts | 0° |
| 2026-05-07 17:47 | 28.56079 | 77.09541 | 747 ft | 4 kts | 318° |
| 2026-05-07 17:48 | 28.56070 | 77.09554 | 749 ft | 0 kts | 284° |
| 2026-05-07 17:49 | 28.56071 | 77.09550 | 748 ft | 3 kts | 284° |
| 2026-05-07 17:49 | 28.56088 | 77.09476 | 750 ft | 12 kts | 284° |
| 2026-05-07 17:50 | 28.56116 | 77.09356 | 750 ft | 20 kts | 285° |
| 2026-05-07 17:50 | 28.56152 | 77.09209 | 748 ft | 18 kts | 285° |
| 2026-05-07 17:50 | 28.56177 | 77.09087 | 750 ft | 13 kts | 268° |
| 2026-05-07 17:50 | 28.56139 | 77.09000 | 750 ft | 12 kts | 262° |
| 2026-05-07 17:51 | 28.56162 | 77.08872 | 750 ft | 20 kts | 285° |
| 2026-05-07 17:51 | 28.56198 | 77.08723 | 748 ft | 19 kts | 285° |
| 2026-05-07 17:51 | 28.56232 | 77.08582 | 750 ft | 19 kts | 283° |
| 2026-05-07 17:51 | 28.56265 | 77.08440 | 750 ft | 18 kts | 285° |
| 2026-05-07 17:52 | 28.56300 | 77.08291 | 748 ft | 23 kts | 285° |
| 2026-05-07 17:52 | 28.56343 | 77.08115 | 749 ft | 21 kts | 285° |
| 2026-05-07 17:52 | 28.56322 | 77.07971 | 750 ft | 19 kts | 213° |
| 2026-05-07 17:52 | 28.56189 | 77.07924 | 746 ft | 21 kts | 193° |
| 2026-05-07 17:53 | 28.56042 | 77.07880 | 748 ft | 23 kts | 194° |
| 2026-05-07 17:53 | 28.55882 | 77.07834 | 750 ft | 25 kts | 194° |
| 2026-05-07 17:53 | 28.55710 | 77.07785 | 747 ft | 26 kts | 194° |
| 2026-05-07 17:53 | 28.55528 | 77.07734 | 748 ft | 28 kts | 194° |
| 2026-05-07 17:54 | 28.55337 | 77.07678 | 747 ft | 29 kts | 194° |
| 2026-05-07 17:54 | 28.55174 | 77.07627 | 751 ft | 20 kts | 201° |
| 2026-05-07 17:54 | 28.55179 | 77.07512 | 749 ft | 19 kts | 290° |
| 2026-05-07 17:54 | 28.55230 | 77.07322 | 749 ft | 27 kts | 284° |
| 2026-05-07 17:55 | 28.55279 | 77.07109 | 751 ft | 29 kts | 284° |
| 2026-05-07 17:55 | 28.55211 | 77.06908 | 751 ft | 29 kts | 221° |
| 2026-05-07 17:55 | 28.55014 | 77.06833 | 748 ft | 31 kts | 192° |
| 2026-05-07 17:55 | 28.54811 | 77.06779 | 747 ft | 25 kts | 193° |
| 2026-05-07 17:56 | 28.54787 | 77.06772 | 748 ft | 0 kts | 193° |
| 2026-05-07 17:56 | 28.54741 | 77.06760 | 748 ft | 14 kts | 193° |
| 2026-05-07 17:56 | 28.54662 | 77.06800 | 751 ft | 15 kts | 101° |
| 2026-05-07 17:57 | 28.54658 | 77.06825 | 751 ft | 0 kts | 101° |
| 2026-05-07 17:57 | 28.54614 | 77.07035 | 751 ft | 66 kts | 104° |
| 2026-05-07 17:57 | 28.54449 | 77.07803 | 747 ft | 131 kts | 103° |
| 2026-05-07 17:58 | 28.54202 | 77.08972 | 982 ft | 159 kts | 103° |
| 2026-05-07 17:58 | 28.54028 | 77.09790 | 1548 ft | 157 kts | 104° |
| 2026-05-07 17:58 | 28.53770 | 77.10991 | 2291 ft | 156 kts | 105° |
| 2026-05-07 17:58 | 28.53758 | 77.12222 | 2859 ft | 162 kts | 75° |
| 2026-05-07 17:59 | 28.54422 | 77.13296 | 3341 ft | 178 kts | 41° |
| 2026-05-07 17:59 | 28.55651 | 77.13842 | 3630 ft | 205 kts | 11° |
| 2026-05-07 17:59 | 28.57142 | 77.14136 | 3880 ft | 230 kts | 11° |
| 2026-05-07 17:59 | 28.58806 | 77.14463 | 4259 ft | 255 kts | 11° |
| 2026-05-07 18:00 | 28.60625 | 77.14823 | 4775 ft | 273 kts | 9° |
| 2026-05-07 18:00 | 28.62502 | 77.15199 | 5659 ft | 274 kts | 8° |
| 2026-05-07 18:00 | 28.64387 | 77.15583 | 6573 ft | 276 kts | 7° |
| 2026-05-07 18:00 | 28.66285 | 77.15972 | 7434 ft | 278 kts | 7° |
| 2026-05-07 18:01 | 28.68192 | 77.16364 | 8307 ft | 280 kts | 6° |
| 2026-05-07 18:01 | 28.70113 | 77.16759 | 9176 ft | 282 kts | 5° |
| 2026-05-07 18:01 | 28.72048 | 77.17159 | 10018 ft | 284 kts | 5° |
| 2026-05-07 18:01 | 28.74060 | 77.17570 | 10363 ft | 306 kts | 5° |
| 2026-05-07 18:02 | 28.78534 | 77.18481 | 11072 ft | 340 kts | 6° |
| 2026-05-07 18:02 | 28.80881 | 77.18971 | 11759 ft | 345 kts | 6° |
| 2026-05-07 18:02 | 28.83253 | 77.19469 | 12480 ft | 349 kts | 6° |
| 2026-05-07 18:03 | 28.85655 | 77.19976 | 13214 ft | 353 kts | 6° |
| 2026-05-07 18:03 | 28.88084 | 77.20488 | 13909 ft | 357 kts | 6° |
| 2026-05-07 18:03 | 28.90540 | 77.21006 | 14562 ft | 360 kts | 6° |
| 2026-05-07 18:03 | 28.93010 | 77.21524 | 15244 ft | 363 kts | 7° |
| 2026-05-07 18:04 | 28.95500 | 77.22042 | 15929 ft | 365 kts | 7° |
| 2026-05-07 18:04 | 28.98014 | 77.22561 | 16604 ft | 368 kts | 7° |
| 2026-05-07 18:04 | 29.00542 | 77.23085 | 17243 ft | 372 kts | 8° |
| 2026-05-07 18:04 | 29.03102 | 77.23617 | 17862 ft | 376 kts | 8° |
| 2026-05-07 18:05 | 29.05688 | 77.24155 | 18464 ft | 379 kts | 8° |
| 2026-05-07 18:05 | 29.08299 | 77.24699 | 19031 ft | 383 kts | 8° |
| 2026-05-07 18:05 | 29.10929 | 77.25248 | 19612 ft | 386 kts | 8° |
| 2026-05-07 18:05 | 29.13581 | 77.25801 | 20186 ft | 389 kts | 8° |
| 2026-05-07 18:06 | 29.16260 | 77.26362 | 20749 ft | 392 kts | 8° |
| 2026-05-07 18:06 | 29.18952 | 77.26925 | 21316 ft | 396 kts | 8° |
| 2026-05-07 18:06 | 29.21671 | 77.27495 | 21856 ft | 399 kts | 9° |
| 2026-05-07 18:06 | 29.24413 | 77.28071 | 22393 ft | 402 kts | 9° |
| 2026-05-07 18:07 | 29.27174 | 77.28651 | 22911 ft | 405 kts | 9° |
| 2026-05-07 18:07 | 29.29959 | 77.29236 | 23416 ft | 408 kts | 9° |
| 2026-05-07 18:07 | 29.32762 | 77.29824 | 23839 ft | 411 kts | 9° |
| 2026-05-07 18:07 | 29.35589 | 77.30418 | 24241 ft | 414 kts | 9° |
| 2026-05-07 18:08 | 29.38432 | 77.31015 | 24624 ft | 417 kts | 9° |
| 2026-05-07 18:08 | 29.41291 | 77.31616 | 25011 ft | 420 kts | 9° |
| 2026-05-07 18:08 | 29.44172 | 77.32218 | 25392 ft | 422 kts | 9° |
| 2026-05-07 18:08 | 29.47075 | 77.32823 | 25759 ft | 425 kts | 9° |
| 2026-05-07 18:09 | 29.49996 | 77.33433 | 26125 ft | 428 kts | 9° |
| 2026-05-07 18:09 | 29.52933 | 77.34050 | 26470 ft | 431 kts | 9° |
| 2026-05-07 18:09 | 29.55892 | 77.34675 | 26808 ft | 434 kts | 9° |
| 2026-05-07 18:09 | 29.58874 | 77.35309 | 27153 ft | 437 kts | 9° |
| 2026-05-07 18:10 | 29.61871 | 77.35945 | 27484 ft | 440 kts | 9° |
| 2026-05-07 18:10 | 29.64887 | 77.36581 | 27812 ft | 442 kts | 9° |
| 2026-05-07 18:10 | 29.67925 | 77.37223 | 28137 ft | 445 kts | 9° |
| 2026-05-07 18:10 | 29.70980 | 77.37869 | 28451 ft | 447 kts | 9° |
| 2026-05-07 18:11 | 29.74048 | 77.38515 | 28755 ft | 450 kts | 9° |
| 2026-05-07 18:11 | 29.76130 | 77.38952 | 28955 ft | 452 kts | 9° |
| 2026-05-07 18:11 | 29.80240 | 77.39819 | 29330 ft | 455 kts | 9° |
| 2026-05-07 18:11 | 29.83371 | 77.40486 | 29519 ft | 460 kts | 9° |
| 2026-05-07 18:12 | 29.86524 | 77.41161 | 29759 ft | 462 kts | 9° |
| 2026-05-07 18:12 | 29.89699 | 77.41837 | 30005 ft | 465 kts | 9° |
| 2026-05-07 18:12 | 29.92880 | 77.42514 | 30219 ft | 466 kts | 9° |
| 2026-05-07 18:12 | 29.96074 | 77.43193 | 30499 ft | 466 kts | 8° |
| 2026-05-07 18:13 | 29.99260 | 77.43806 | 30840 ft | 462 kts | 4° |
| 2026-05-07 18:13 | 30.02452 | 77.44067 | 31191 ft | 459 kts | 1° |
| 2026-05-07 18:13 | 30.05628 | 77.44308 | 31549 ft | 456 kts | 1° |
| 2026-05-07 18:13 | 30.08783 | 77.44556 | 31911 ft | 454 kts | 1° |
| 2026-05-07 18:14 | 30.11929 | 77.44807 | 32255 ft | 452 kts | 1° |
| 2026-05-07 18:14 | 30.15057 | 77.45056 | 32631 ft | 449 kts | 1° |
| 2026-05-07 18:14 | 30.18169 | 77.45301 | 33001 ft | 446 kts | 1° |
| 2026-05-07 18:14 | 30.21256 | 77.45540 | 33378 ft | 443 kts | 1° |
| 2026-05-07 18:15 | 30.24321 | 77.45777 | 33763 ft | 440 kts | 1° |
| 2026-05-07 18:15 | 30.27373 | 77.46015 | 34128 ft | 438 kts | 0° |
| 2026-05-07 18:15 | 30.30404 | 77.46252 | 34417 ft | 436 kts | 0° |
| 2026-05-07 18:15 | 30.33435 | 77.46487 | 34691 ft | 435 kts | 0° |
| 2026-05-07 18:16 | 30.36456 | 77.46724 | 34921 ft | 436 kts | 0° |
| 2026-05-07 18:16 | 30.42490 | 77.47198 | 34956 ft | 434 kts | 0° |
| 2026-05-07 18:17 | 30.48515 | 77.47667 | 34952 ft | 434 kts | 0° |
| 2026-05-07 18:17 | 30.54541 | 77.48138 | 34953 ft | 434 kts | 0° |
| 2026-05-07 18:18 | 30.60565 | 77.48617 | 34974 ft | 434 kts | 1° |
| 2026-05-07 18:18 | 30.66591 | 77.49095 | 34973 ft | 434 kts | 0° |
| 2026-05-07 18:19 | 30.72616 | 77.49573 | 34996 ft | 434 kts | 0° |
| 2026-05-07 18:19 | 30.78638 | 77.50045 | 34995 ft | 434 kts | 0° |
| 2026-05-07 18:20 | 30.84694 | 77.50515 | 35005 ft | 433 kts | 0° |
| 2026-05-07 18:20 | 30.90674 | 77.50986 | 35004 ft | 433 kts | 0° |
| 2026-05-07 18:21 | 30.96733 | 77.51476 | 35025 ft | 434 kts | 1° |
| 2026-05-07 18:21 | 31.02758 | 77.51960 | 35027 ft | 434 kts | 1° |
| 2026-05-07 18:22 | 31.08751 | 77.52432 | 35146 ft | 435 kts | 1° |
| 2026-05-07 18:22 | 31.10789 | 77.52594 | 35322 ft | 435 kts | 1° |
| 2026-05-07 18:22 | 31.14821 | 77.52915 | 35667 ft | 434 kts | 1° |
| 2026-05-07 18:22 | 31.17836 | 77.53156 | 35919 ft | 434 kts | 1° |
| 2026-05-07 18:23 | 31.20811 | 77.53396 | 36044 ft | 434 kts | 1° |
| 2026-05-07 18:23 | 31.26878 | 77.53896 | 36061 ft | 434 kts | 1° |
| 2026-05-07 18:24 | 31.32898 | 77.54397 | 36054 ft | 434 kts | 1° |
| 2026-05-07 18:24 | 31.38884 | 77.54884 | 36078 ft | 434 kts | 1° |
| 2026-05-07 18:25 | 31.44939 | 77.55375 | 36074 ft | 434 kts | 1° |
| 2026-05-07 18:25 | 31.50961 | 77.55866 | 36106 ft | 434 kts | 1° |
| 2026-05-07 18:26 | 31.56988 | 77.56363 | 36106 ft | 435 kts | 1° |
| 2026-05-07 18:26 | 31.63029 | 77.56863 | 36127 ft | 435 kts | 1° |
| 2026-05-07 18:27 | 31.69074 | 77.57363 | 36155 ft | 436 kts | 1° |
| 2026-05-07 18:27 | 31.75116 | 77.57867 | 36177 ft | 435 kts | 1° |
| 2026-05-07 18:28 | 31.81158 | 77.58364 | 36181 ft | 434 kts | 1° |
| 2026-05-07 18:28 | 31.87175 | 77.58859 | 36184 ft | 434 kts | 1° |
| 2026-05-07 18:29 | 31.93214 | 77.59359 | 36225 ft | 438 kts | 1° |
| 2026-05-07 18:29 | 31.99298 | 77.59867 | 36229 ft | 439 kts | 1° |
| 2026-05-07 18:30 | 32.05390 | 77.60377 | 36240 ft | 438 kts | 1° |
| 2026-05-07 18:30 | 32.11465 | 77.60884 | 36242 ft | 437 kts | 1° |
| 2026-05-07 18:31 | 32.17535 | 77.61384 | 36267 ft | 438 kts | 1° |
| 2026-05-07 18:31 | 32.23616 | 77.61897 | 36289 ft | 438 kts | 1° |
| 2026-05-07 18:32 | 32.29694 | 77.62401 | 36305 ft | 438 kts | 1° |
| 2026-05-07 18:32 | 32.35774 | 77.62908 | 36334 ft | 438 kts | 1° |
| 2026-05-07 18:33 | 32.41764 | 77.64312 | 36330 ft | 443 kts | 17° |
| 2026-05-07 18:33 | 32.47561 | 77.66820 | 36343 ft | 444 kts | 17° |
| 2026-05-07 18:34 | 32.53364 | 77.69305 | 36248 ft | 444 kts | 17° |
| 2026-05-07 18:34 | 32.56285 | 77.70555 | 35269 ft | 450 kts | 17° |
| 2026-05-07 18:34 | 32.59258 | 77.71827 | 34150 ft | 458 kts | 18° |
| 2026-05-07 18:34 | 32.62270 | 77.73122 | 32946 ft | 463 kts | 19° |
| 2026-05-07 18:35 | 32.65309 | 77.74434 | 31725 ft | 468 kts | 19° |
| 2026-05-07 18:35 | 32.68391 | 77.75769 | 30506 ft | 474 kts | 20° |
| 2026-05-07 18:35 | 32.71498 | 77.77120 | 29489 ft | 473 kts | 20° |
| 2026-05-07 18:35 | 32.74541 | 77.78443 | 29242 ft | 462 kts | 20° |
| 2026-05-07 18:36 | 32.76531 | 77.79308 | 29080 ft | 458 kts | 20° |
| 2026-05-07 18:36 | 32.79517 | 77.80605 | 28844 ft | 455 kts | 20° |
| 2026-05-07 18:36 | 32.82487 | 77.81891 | 28604 ft | 453 kts | 20° |
| 2026-05-07 18:36 | 32.85425 | 77.83162 | 28368 ft | 443 kts | 20° |
| 2026-05-07 18:37 | 32.88277 | 77.84393 | 28132 ft | 429 kts | 20° |
| 2026-05-07 18:37 | 32.91041 | 77.85590 | 27907 ft | 416 kts | 20° |
| 2026-05-07 18:37 | 32.93725 | 77.86757 | 27674 ft | 405 kts | 21° |
| 2026-05-07 18:37 | 32.96336 | 77.87894 | 27448 ft | 397 kts | 21° |
| 2026-05-07 18:38 | 32.99000 | 77.89056 | 27209 ft | 420 kts | 21° |
| 2026-05-07 18:38 | 33.01742 | 77.90252 | 26966 ft | 418 kts | 20° |
| 2026-05-07 18:38 | 33.04458 | 77.91438 | 26703 ft | 414 kts | 21° |
| 2026-05-07 18:38 | 33.07154 | 77.92617 | 26403 ft | 411 kts | 20° |
| 2026-05-07 18:39 | 33.09839 | 77.93789 | 26114 ft | 410 kts | 21° |
| 2026-05-07 18:39 | 33.12506 | 77.94952 | 25846 ft | 407 kts | 20° |
| 2026-05-07 18:39 | 33.15156 | 77.96110 | 25559 ft | 404 kts | 21° |
| 2026-05-07 18:39 | 33.17787 | 77.97261 | 25281 ft | 402 kts | 20° |
| 2026-05-07 18:40 | 33.20411 | 77.98410 | 25008 ft | 401 kts | 21° |
| 2026-05-07 18:40 | 33.23024 | 77.99551 | 24730 ft | 399 kts | 21° |
| 2026-05-07 18:40 | 33.25657 | 78.00701 | 24447 ft | 403 kts | 21° |
| 2026-05-07 18:40 | 33.28260 | 78.01839 | 24179 ft | 393 kts | 21° |
| 2026-05-07 18:41 | 33.30861 | 78.02708 | 23897 ft | 386 kts | 6° |
| 2026-05-07 18:41 | 33.33487 | 78.02367 | 23600 ft | 380 kts | 343° |
| 2026-05-07 18:41 | 33.35968 | 78.01249 | 22708 ft | 387 kts | 339° |
| 2026-05-07 18:41 | 33.38511 | 77.99925 | 21590 ft | 401 kts | 337° |
| 2026-05-07 18:42 | 33.41022 | 77.98521 | 21081 ft | 403 kts | 335° |
| 2026-05-07 18:42 | 33.43554 | 77.97077 | 20940 ft | 403 kts | 336° |
| 2026-05-07 18:42 | 33.46087 | 77.95646 | 20777 ft | 400 kts | 336° |
| 2026-05-07 18:42 | 33.48550 | 77.94276 | 20623 ft | 372 kts | 336° |
| 2026-05-07 18:43 | 33.50800 | 77.93049 | 20476 ft | 350 kts | 337° |
| 2026-05-07 18:43 | 33.52988 | 77.91875 | 20336 ft | 342 kts | 338° |
| 2026-05-07 18:43 | 33.55168 | 77.90718 | 20187 ft | 331 kts | 338° |
| 2026-05-07 18:43 | 33.57203 | 77.89635 | 20084 ft | 309 kts | 338° |
| 2026-05-07 18:44 | 33.59076 | 77.88631 | 19986 ft | 288 kts | 338° |
| 2026-05-07 18:44 | 33.60862 | 77.87669 | 19885 ft | 268 kts | 338° |
| 2026-05-07 18:44 | 33.62500 | 77.86784 | 19794 ft | 250 kts | 336° |
| 2026-05-07 18:44 | 33.64028 | 77.85961 | 19741 ft | 232 kts | 337° |
| 2026-05-07 18:45 | 33.65462 | 77.85191 | 19639 ft | 221 kts | 337° |
| 2026-05-07 18:45 | 33.66835 | 77.84453 | 19537 ft | 211 kts | 338° |
| 2026-05-07 18:45 | 33.68154 | 77.83745 | 19436 ft | 206 kts | 339° |
| 2026-05-07 18:45 | 33.69455 | 77.83046 | 19344 ft | 204 kts | 337° |
| 2026-05-07 18:46 | 33.70751 | 77.82350 | 19252 ft | 204 kts | 337° |
| 2026-05-07 18:46 | 33.72045 | 77.81652 | 19142 ft | 203 kts | 336° |
| 2026-05-07 18:46 | 33.73327 | 77.80957 | 19017 ft | 202 kts | 337° |
| 2026-05-07 18:46 | 33.74604 | 77.80266 | 18902 ft | 201 kts | 337° |
| 2026-05-07 18:47 | 33.75878 | 77.79580 | 18794 ft | 201 kts | 337° |
| 2026-05-07 18:47 | 33.77155 | 77.78892 | 18669 ft | 201 kts | 337° |
| 2026-05-07 18:47 | 33.78428 | 77.78204 | 18538 ft | 200 kts | 337° |
| 2026-05-07 18:47 | 33.79697 | 77.77517 | 18411 ft | 200 kts | 337° |
| 2026-05-07 18:48 | 33.80961 | 77.76832 | 18275 ft | 199 kts | 337° |
| 2026-05-07 18:48 | 33.82225 | 77.76149 | 18151 ft | 199 kts | 337° |
| 2026-05-07 18:48 | 33.83488 | 77.75465 | 18020 ft | 199 kts | 337° |
| 2026-05-07 18:48 | 33.84747 | 77.74784 | 17882 ft | 198 kts | 337° |
| 2026-05-07 18:49 | 33.86007 | 77.74103 | 17768 ft | 198 kts | 337° |
| 2026-05-07 18:49 | 33.87265 | 77.73421 | 17633 ft | 199 kts | 338° |
| 2026-05-07 18:49 | 33.88525 | 77.72739 | 17503 ft | 198 kts | 338° |
| 2026-05-07 18:49 | 33.89781 | 77.72062 | 17383 ft | 198 kts | 337° |
| 2026-05-07 18:50 | 33.91038 | 77.71382 | 17250 ft | 198 kts | 337° |
| 2026-05-07 18:50 | 33.92293 | 77.70700 | 17128 ft | 197 kts | 337° |
| 2026-05-07 18:50 | 33.93544 | 77.70020 | 17005 ft | 197 kts | 337° |
| 2026-05-07 18:50 | 33.94793 | 77.69340 | 16881 ft | 197 kts | 337° |
| 2026-05-07 18:51 | 33.96039 | 77.68660 | 16768 ft | 197 kts | 337° |
| 2026-05-07 18:51 | 33.97285 | 77.67983 | 16618 ft | 196 kts | 337° |
| 2026-05-07 18:51 | 33.98531 | 77.67305 | 16472 ft | 197 kts | 336° |
| 2026-05-07 18:51 | 33.99778 | 77.66620 | 16326 ft | 197 kts | 333° |
| 2026-05-07 18:52 | 34.00901 | 77.65675 | 16182 ft | 197 kts | 322° |
| 2026-05-07 18:52 | 34.01985 | 77.64664 | 16038 ft | 197 kts | 322° |
| 2026-05-07 18:52 | 34.03073 | 77.63656 | 15873 ft | 197 kts | 321° |
| 2026-05-07 18:52 | 34.04159 | 77.62653 | 15703 ft | 196 kts | 321° |
| 2026-05-07 18:53 | 34.05238 | 77.61653 | 15549 ft | 195 kts | 321° |
| 2026-05-07 18:53 | 34.06312 | 77.60653 | 15408 ft | 194 kts | 321° |
| 2026-05-07 18:53 | 34.07383 | 77.59655 | 15222 ft | 194 kts | 322° |
| 2026-05-07 18:53 | 34.08445 | 77.58664 | 15010 ft | 193 kts | 321° |
| 2026-05-07 18:54 | 34.09504 | 77.57678 | 14807 ft | 192 kts | 321° |
| 2026-05-07 18:54 | 34.10563 | 77.56693 | 14681 ft | 191 kts | 323° |
| 2026-05-07 18:54 | 34.11612 | 77.55720 | 14498 ft | 190 kts | 325° |
| 2026-05-07 18:54 | 34.12791 | 77.55058 | 14309 ft | 188 kts | 348° |
| 2026-05-07 18:55 | 34.14065 | 77.54773 | 14111 ft | 183 kts | 340° |
| 2026-05-07 18:55 | 34.15126 | 77.54032 | 13877 ft | 174 kts | 317° |
| 2026-05-07 18:55 | 34.15883 | 77.52912 | 13645 ft | 171 kts | 306° |
| 2026-05-07 18:55 | 34.16580 | 77.51750 | 13408 ft | 171 kts | 306° |
| 2026-05-07 18:56 | 34.17257 | 77.50579 | 13147 ft | 169 kts | 296° |
| 2026-05-07 18:56 | 34.17449 | 77.49194 | 12936 ft | 172 kts | 259° |
| 2026-05-07 18:56 | 34.16909 | 77.47928 | 12731 ft | 174 kts | 223° |
| 2026-05-07 18:56 | 34.15846 | 77.47248 | 12560 ft | 175 kts | 201° |
| 2026-05-07 18:57 | 34.14708 | 77.46717 | 12363 ft | 176 kts | 188° |
| 2026-05-07 18:57 | 34.13569 | 77.47073 | 12190 ft | 174 kts | 138° |
| 2026-05-07 18:57 | 34.12872 | 77.48238 | 11947 ft | 173 kts | 118° |
| 2026-05-07 18:57 | 34.12355 | 77.49538 | 11620 ft | 173 kts | 97° |
| 2026-05-07 18:58 | 34.12474 | 77.50979 | 11012 ft | 180 kts | 69° |
| 2026-05-07 18:58 | 34.12963 | 77.52354 | 10735 ft | 176 kts | 68° |
| 2026-05-07 18:58 | 34.13347 | 77.53735 | 10619 ft | 158 kts | 70° |
| 2026-05-07 18:58 | 34.13607 | 77.54639 | 10672 ft | 70 kts | 71° |
| 2026-05-07 18:59 | 34.13692 | 77.54935 | 10721 ft | 17 kts | 71° |
| 2026-05-07 18:59 | 34.13746 | 77.54959 | 10728 ft | 6 kts | 342° |
| 2026-05-07 18:59 | 34.13781 | 77.54944 | 10730 ft | 5 kts | 334° |
| 2026-05-07 18:59 | 34.13813 | 77.54923 | 10730 ft | 5 kts | 332° |
| 2026-05-07 19:00 | 34.13852 | 77.54902 | 10734 ft | 6 kts | 335° |
| 2026-05-07 19:00 | 34.13885 | 77.54883 | 10733 ft | 4 kts | 335° |
| 2026-05-07 19:00 | 34.13904 | 77.54872 | 10735 ft | 4 kts | 334° |
| 2026-05-07 19:00 | 34.13933 | 77.54856 | 10738 ft | 8 kts | 335° |
| 2026-05-07 19:01 | 34.13997 | 77.54823 | 10745 ft | 8 kts | 344° |
| 2026-05-07 19:01 | 34.14014 | 77.54822 | 10748 ft | 0 kts | 3° |
| 2026-05-07 19:01 | 34.14028 | 77.54837 | 10751 ft | 6 kts | 53° |
| 2026-05-07 19:01 | 34.14053 | 77.54891 | 10759 ft | 4 kts | 62° |
| 2026-05-07 19:02 | 34.14065 | 77.54920 | 10764 ft | 8 kts | 64° |
| 2026-05-07 19:02 | 34.14020 | 77.54991 | 10761 ft | 5 kts | 154° |
| 2026-05-07 19:02 | 34.14019 | 77.54992 | 10761 ft | 0 kts | 154° |